createdAt,value
2017-12-16T00:01:43.400Z,3.60
2017-12-16T00:04:10.970Z,3.60
2017-12-16T00:06:38.646Z,3.60
2017-12-16T00:09:07.045Z,3.50
2017-12-16T00:11:34.694Z,3.50
2017-12-16T00:14:03.194Z,3.40
2017-12-16T00:16:30.879Z,3.40
2017-12-16T00:18:58.556Z,3.30
2017-12-16T00:21:26.308Z,3.30
2017-12-16T00:23:54.063Z,3.20
2017-12-16T00:26:21.728Z,3.10
2017-12-16T00:28:49.350Z,3.10
2017-12-16T00:31:16.995Z,3.10
2017-12-16T00:33:44.587Z,3.20
2017-12-16T00:36:12.335Z,3.20
2017-12-16T00:38:40.836Z,3.30
2017-12-16T00:41:08.474Z,3.30
2017-12-16T00:43:36.087Z,3.30
2017-12-16T00:46:03.665Z,3.40
2017-12-16T00:48:31.243Z,3.50
2017-12-16T00:50:58.830Z,3.50
2017-12-16T00:53:26.442Z,3.50
2017-12-16T00:55:54.505Z,3.60
2017-12-16T00:58:22.109Z,3.40
2017-12-16T01:00:49.780Z,3.50
2017-12-16T01:03:17.419Z,3.50
2017-12-16T01:05:45.096Z,3.40
2017-12-16T01:08:12.782Z,3.40
2017-12-16T01:10:41.246Z,3.50
2017-12-16T01:13:08.908Z,3.50
2017-12-16T01:15:36.476Z,3.60
2017-12-16T01:18:04.098Z,3.70
2017-12-16T01:20:31.770Z,3.70
2017-12-16T01:22:59.391Z,3.80
2017-12-16T01:25:26.972Z,3.80
2017-12-16T01:27:54.546Z,3.90
2017-12-16T01:30:22.220Z,3.90
2017-12-16T01:32:49.846Z,4.00
2017-12-16T01:35:29.336Z,4.00
2017-12-16T01:38:08.837Z,3.90
2017-12-16T01:40:36.524Z,3.90
2017-12-16T01:43:04.097Z,3.90
2017-12-16T01:45:31.981Z,3.90
2017-12-16T01:48:00.126Z,3.90
2017-12-16T01:50:27.660Z,3.90
2017-12-16T01:52:55.338Z,3.90
2017-12-16T01:55:22.940Z,3.80
2017-12-16T01:57:50.549Z,3.70
2017-12-16T02:00:18.165Z,3.60
2017-12-16T02:02:45.895Z,3.50
2017-12-16T02:05:13.478Z,3.40
2017-12-16T02:07:41.125Z,3.50
2017-12-16T02:10:08.753Z,3.50
2017-12-16T02:12:36.349Z,3.50
2017-12-16T02:15:03.998Z,3.50
2017-12-16T02:17:31.648Z,3.60
2017-12-16T02:19:59.488Z,3.70
2017-12-16T02:22:27.234Z,3.70
2017-12-16T02:24:55.615Z,3.70
2017-12-16T02:27:23.246Z,3.70
2017-12-16T02:29:50.875Z,3.80
2017-12-16T02:32:18.497Z,3.80
2017-12-16T02:34:46.190Z,3.80
2017-12-16T02:37:13.816Z,3.80
2017-12-16T02:39:41.439Z,3.80
2017-12-16T02:42:09.040Z,3.70
2017-12-16T02:44:37.393Z,3.60
2017-12-16T02:47:04.999Z,3.60
2017-12-16T02:49:32.658Z,3.60
2017-12-16T02:52:00.318Z,3.60
2017-12-16T02:54:27.898Z,3.60
2017-12-16T02:56:55.497Z,3.60
2017-12-16T02:59:23.134Z,3.50
2017-12-16T03:01:50.884Z,3.50
2017-12-16T03:04:18.581Z,3.50
2017-12-16T03:06:46.248Z,3.50
2017-12-16T03:09:13.966Z,3.60
2017-12-16T03:11:41.645Z,3.60
2017-12-16T03:14:09.291Z,3.40
2017-12-16T03:16:36.994Z,3.50
2017-12-16T03:19:04.808Z,3.60
2017-12-16T03:21:32.469Z,3.70
2017-12-16T03:24:00.865Z,3.70
2017-12-16T03:26:28.423Z,3.70
2017-12-16T03:28:56.846Z,3.50
2017-12-16T03:31:24.485Z,3.50
2017-12-16T03:33:52.152Z,3.50
2017-12-16T03:36:19.760Z,3.50
2017-12-16T03:38:48.128Z,3.60
2017-12-16T03:41:15.723Z,3.60
2017-12-16T03:43:43.327Z,3.60
2017-12-16T03:46:10.962Z,3.70
2017-12-16T03:48:38.543Z,3.70
2017-12-16T03:51:06.158Z,3.60
2017-12-16T03:53:33.887Z,3.60
2017-12-16T03:56:01.541Z,3.50
2017-12-16T03:58:29.298Z,3.50
2017-12-16T04:00:56.923Z,3.70
2017-12-16T04:03:25.451Z,3.70
2017-12-16T04:05:53.285Z,3.70
2017-12-16T04:08:20.847Z,3.60
2017-12-16T04:10:48.496Z,3.70
2017-12-16T04:13:16.156Z,3.70
2017-12-16T04:15:43.919Z,3.80
2017-12-16T04:18:11.677Z,3.60
2017-12-16T04:20:39.374Z,3.60
2017-12-16T04:23:07.041Z,3.80
2017-12-16T04:25:34.730Z,3.70
2017-12-16T04:28:02.536Z,3.50
2017-12-16T04:30:30.215Z,3.70
2017-12-16T04:32:57.985Z,3.70
2017-12-16T04:35:25.641Z,3.70
2017-12-16T04:37:53.288Z,3.60
2017-12-16T04:40:20.894Z,3.70
2017-12-16T04:42:48.477Z,3.70
2017-12-16T04:45:16.141Z,3.70
2017-12-16T04:47:43.779Z,3.60
2017-12-16T04:50:11.445Z,3.60
2017-12-16T04:52:39.016Z,3.60
2017-12-16T04:55:07.473Z,3.50
2017-12-16T04:57:35.083Z,3.50
2017-12-16T05:00:02.715Z,3.60
2017-12-16T05:02:30.358Z,3.50
2017-12-16T05:04:58.011Z,3.50
2017-12-16T05:07:25.676Z,3.60
2017-12-16T05:09:53.223Z,3.50
2017-12-16T05:12:20.904Z,3.50
2017-12-16T05:14:48.539Z,3.50
2017-12-16T05:17:16.155Z,3.40
2017-12-16T05:19:44.550Z,3.30
2017-12-16T05:22:12.212Z,3.30
2017-12-16T05:24:39.863Z,3.30
2017-12-16T05:27:07.605Z,3.10
2017-12-16T05:29:35.954Z,3.00
2017-12-16T05:32:03.694Z,3.00
2017-12-16T05:34:31.410Z,3.10
2017-12-16T05:36:59.060Z,3.20
2017-12-16T05:39:27.454Z,3.20
2017-12-16T05:41:55.147Z,3.20
2017-12-16T05:44:22.783Z,3.20
2017-12-16T05:46:50.430Z,3.30
2017-12-16T05:49:18.071Z,3.20
2017-12-16T05:51:45.652Z,3.20
2017-12-16T05:54:13.275Z,3.20
2017-12-16T05:56:40.878Z,3.30
2017-12-16T05:59:09.255Z,3.30
2017-12-16T06:01:36.830Z,3.30
2017-12-16T06:04:05.285Z,3.60
2017-12-16T06:06:32.935Z,3.50
2017-12-16T06:09:01.209Z,3.50
2017-12-16T06:11:28.826Z,3.50
2017-12-16T06:13:56.491Z,3.40
2017-12-16T06:16:24.243Z,3.50
2017-12-16T06:18:51.986Z,3.50
2017-12-16T06:21:19.743Z,3.60
2017-12-16T06:23:47.346Z,3.40
2017-12-16T06:26:15.054Z,3.30
2017-12-16T06:28:42.679Z,3.40
2017-12-16T06:31:10.278Z,3.40
2017-12-16T06:33:37.969Z,3.40
2017-12-16T06:36:05.561Z,3.40
2017-12-16T06:38:33.243Z,3.40
2017-12-16T06:41:00.914Z,3.30
2017-12-16T06:43:28.542Z,3.30
2017-12-16T06:45:56.201Z,3.30
2017-12-16T06:48:23.808Z,3.30
2017-12-16T06:50:52.219Z,3.20
2017-12-16T06:53:19.803Z,3.20
2017-12-16T06:55:48.244Z,2.90
2017-12-16T06:58:15.949Z,2.90
2017-12-16T07:00:43.819Z,2.90
2017-12-16T07:03:11.899Z,3.00
2017-12-16T07:05:39.605Z,2.90
2017-12-16T07:08:07.310Z,2.80
2017-12-16T07:10:34.962Z,2.80
2017-12-16T07:13:02.670Z,2.80
2017-12-16T07:15:30.351Z,2.80
2017-12-16T07:17:58.056Z,2.80
2017-12-16T07:20:26.562Z,2.80
2017-12-16T07:22:54.209Z,2.80
2017-12-16T07:25:21.911Z,2.80
2017-12-16T07:27:49.577Z,2.80
2017-12-16T07:30:17.672Z,2.80
2017-12-16T07:32:45.906Z,2.80
2017-12-16T07:35:13.492Z,2.60
2017-12-16T07:37:41.176Z,2.70
2017-12-16T07:40:08.862Z,2.70
2017-12-16T07:42:36.497Z,2.60
2017-12-16T07:45:04.920Z,2.70
2017-12-16T07:47:32.662Z,2.60
2017-12-16T07:50:00.386Z,2.70
2017-12-16T07:52:28.094Z,2.70
2017-12-16T07:54:55.715Z,2.70
2017-12-16T07:57:23.405Z,2.80
2017-12-16T07:59:51.029Z,2.70
2017-12-16T08:02:18.669Z,2.80
2017-12-16T08:04:46.414Z,2.90
2017-12-16T08:07:15.507Z,2.90
2017-12-16T08:09:43.188Z,2.90
2017-12-16T08:12:10.795Z,2.90
2017-12-16T08:14:38.358Z,2.90
2017-12-16T08:17:06.063Z,2.90
2017-12-16T08:19:33.735Z,2.90
2017-12-16T08:22:01.356Z,3.00
2017-12-16T08:24:29.731Z,3.00
2017-12-16T08:26:57.880Z,3.00
2017-12-16T08:29:25.501Z,3.00
2017-12-16T08:31:53.121Z,3.10
2017-12-16T08:34:20.718Z,3.10
2017-12-16T08:36:48.302Z,3.10
2017-12-16T08:39:15.901Z,3.10
2017-12-16T08:41:43.565Z,3.20
2017-12-16T08:44:11.235Z,3.20
2017-12-16T08:46:38.958Z,3.30
2017-12-16T08:49:07.419Z,3.30
2017-12-16T08:51:35.120Z,3.30
2017-12-16T08:56:37.106Z,3.20
2017-12-16T08:59:04.743Z,3.20
2017-12-16T09:01:32.406Z,3.20
2017-12-16T09:04:00.052Z,3.30
2017-12-16T09:06:27.617Z,3.40
2017-12-16T09:08:56.386Z,3.30
2017-12-16T09:11:23.991Z,3.30
2017-12-16T09:13:55.256Z,3.30
2017-12-16T09:16:22.911Z,3.40
2017-12-16T09:18:50.524Z,3.50
2017-12-16T09:21:18.793Z,3.60
2017-12-16T09:23:46.403Z,3.60
2017-12-16T09:26:13.962Z,3.60
2017-12-16T09:28:41.540Z,3.70
2017-12-16T09:31:09.132Z,3.70
2017-12-16T09:33:36.677Z,3.80
2017-12-16T09:36:04.264Z,3.90
2017-12-16T09:38:31.942Z,3.90
2017-12-16T09:41:00.867Z,3.90
2017-12-16T09:43:28.501Z,3.90
2017-12-16T09:45:57.147Z,4.00
2017-12-16T09:48:24.785Z,4.10
2017-12-16T09:50:52.378Z,4.20
2017-12-16T09:53:19.979Z,4.20
2017-12-16T09:55:47.559Z,4.40
2017-12-16T09:58:15.249Z,4.50
2017-12-16T10:00:42.914Z,4.70
2017-12-16T10:03:10.504Z,4.70
2017-12-16T10:05:38.097Z,4.70
2017-12-16T10:08:06.497Z,4.70
2017-12-16T10:10:34.735Z,4.70
2017-12-16T10:13:05.181Z,4.60
2017-12-16T10:15:33.758Z,4.70
2017-12-16T10:18:01.422Z,4.50
2017-12-16T10:20:29.096Z,4.60
2017-12-16T10:22:56.673Z,4.60
2017-12-16T10:25:24.400Z,4.60
2017-12-16T10:27:52.715Z,4.50
2017-12-16T10:30:20.313Z,4.70
2017-12-16T10:32:47.944Z,4.80
2017-12-16T10:35:16.579Z,5.00
2017-12-16T10:37:44.861Z,5.00
2017-12-16T10:40:12.446Z,5.10
2017-12-16T10:42:40.001Z,5.10
2017-12-16T10:45:07.592Z,5.20
2017-12-16T10:47:35.411Z,5.30
2017-12-16T10:50:03.091Z,5.40
2017-12-16T10:52:30.734Z,5.40
2017-12-16T10:54:59.321Z,5.50
2017-12-16T10:57:27.643Z,5.20
2017-12-16T10:59:55.255Z,5.20
2017-12-16T11:02:22.831Z,5.20
2017-12-16T11:04:50.603Z,5.20
2017-12-16T11:07:18.209Z,5.00
2017-12-16T11:09:45.840Z,5.00
2017-12-16T11:12:14.326Z,5.10
2017-12-16T11:14:42.047Z,5.30
2017-12-16T11:17:09.734Z,5.30
2017-12-16T11:19:37.572Z,5.20
2017-12-16T11:22:05.280Z,5.10
2017-12-16T11:24:32.942Z,5.20
2017-12-16T11:27:00.558Z,5.40
2017-12-16T11:29:28.158Z,5.50
2017-12-16T11:31:55.736Z,5.50
2017-12-16T11:34:23.308Z,5.20
2017-12-16T11:36:51.014Z,5.20
2017-12-16T11:39:18.660Z,5.10
2017-12-16T11:41:46.292Z,5.30
2017-12-16T11:44:13.934Z,5.40
2017-12-16T11:46:42.592Z,5.50
2017-12-16T11:49:10.156Z,5.40
2017-12-16T11:51:37.890Z,5.50
2017-12-16T11:54:05.665Z,5.60
2017-12-16T11:56:33.298Z,5.60
2017-12-16T11:59:01.641Z,5.60
2017-12-16T12:01:29.255Z,5.60
2017-12-16T12:03:56.863Z,5.60
2017-12-16T12:06:25.236Z,5.80
2017-12-16T12:08:52.797Z,5.70
2017-12-16T12:11:21.111Z,5.70
2017-12-16T12:13:48.692Z,5.70
2017-12-16T12:16:17.041Z,5.70
2017-12-16T12:18:44.597Z,5.70
2017-12-16T12:21:13.009Z,5.60
2017-12-16T12:23:41.017Z,5.60
2017-12-16T12:26:09.458Z,5.70
2017-12-16T12:28:37.051Z,5.70
2017-12-16T12:31:04.718Z,5.70
2017-12-16T12:33:32.712Z,5.70
2017-12-16T12:36:00.342Z,5.80
2017-12-16T12:38:28.040Z,5.60
2017-12-16T12:40:55.689Z,5.60
2017-12-16T12:43:23.252Z,5.50
2017-12-16T12:45:50.838Z,5.70
2017-12-16T12:48:19.152Z,5.60
2017-12-16T12:50:46.709Z,5.60
2017-12-16T12:53:14.306Z,5.60
2017-12-16T12:55:41.908Z,5.60
2017-12-16T12:58:09.518Z,5.50
2017-12-16T13:00:37.117Z,5.50
2017-12-16T13:03:04.689Z,5.50
2017-12-16T13:05:33.085Z,5.50
2017-12-16T13:08:00.673Z,5.50
2017-12-16T13:10:28.371Z,5.50
2017-12-16T13:12:56.189Z,5.50
2017-12-16T13:15:24.566Z,5.40
2017-12-16T13:17:52.217Z,5.40
2017-12-16T13:20:19.940Z,5.40
2017-12-16T13:22:48.275Z,5.30
2017-12-16T13:25:15.863Z,5.30
2017-12-16T13:27:43.435Z,5.30
2017-12-16T13:30:11.047Z,5.30
2017-12-16T13:32:38.677Z,5.40
2017-12-16T13:35:06.235Z,5.40
2017-12-16T13:37:34.697Z,5.60
2017-12-16T13:40:03.098Z,5.70
2017-12-16T13:42:30.753Z,5.70
2017-12-16T13:44:58.371Z,5.70
2017-12-16T13:47:26.026Z,5.70
2017-12-16T13:49:53.694Z,5.70
2017-12-16T13:52:21.495Z,5.60
2017-12-16T13:54:49.168Z,5.70
2017-12-16T13:57:16.731Z,5.60
2017-12-16T13:59:45.173Z,5.70
2017-12-16T14:02:13.806Z,5.60
2017-12-16T14:04:41.468Z,5.60
2017-12-16T14:07:09.050Z,5.60
2017-12-16T14:09:37.090Z,5.60
2017-12-16T14:12:04.791Z,5.60
2017-12-16T14:14:32.645Z,5.60
2017-12-16T14:17:00.405Z,5.50
2017-12-16T14:19:28.099Z,5.50
2017-12-16T14:21:55.823Z,5.50
2017-12-16T14:24:23.471Z,5.50
2017-12-16T14:26:51.383Z,5.40
2017-12-16T14:29:19.255Z,5.50
2017-12-16T14:31:47.958Z,5.50
2017-12-16T14:34:16.475Z,5.50
2017-12-16T14:36:44.111Z,5.60
2017-12-16T14:39:12.581Z,5.70
2017-12-16T14:41:41.244Z,5.60
2017-12-16T14:44:09.814Z,5.70
2017-12-16T14:46:37.498Z,5.70
2017-12-16T14:49:05.903Z,5.70
2017-12-16T14:51:34.430Z,5.80
2017-12-16T14:54:02.060Z,5.80
2017-12-16T14:56:29.856Z,5.90
2017-12-16T14:58:57.487Z,5.80
2017-12-16T15:01:25.142Z,5.70
2017-12-16T15:03:52.805Z,5.80
2017-12-16T15:06:20.426Z,5.80
2017-12-16T15:08:49.625Z,5.90
2017-12-16T15:11:17.281Z,5.80
2017-12-16T15:13:45.616Z,5.90
2017-12-16T15:16:13.462Z,5.90
2017-12-16T15:18:41.843Z,5.90
2017-12-16T15:21:09.637Z,5.90
2017-12-16T15:23:37.441Z,5.80
2017-12-16T15:26:05.124Z,5.70
2017-12-16T15:28:32.797Z,5.60
2017-12-16T15:31:00.408Z,5.70
2017-12-16T15:33:28.271Z,5.60
2017-12-16T15:35:56.258Z,5.50
2017-12-16T15:38:24.051Z,5.50
2017-12-16T15:40:51.695Z,5.40
2017-12-16T15:43:19.526Z,5.40
2017-12-16T15:45:48.208Z,5.40
2017-12-16T15:48:15.958Z,5.50
2017-12-16T15:50:44.486Z,5.50
2017-12-16T15:53:12.286Z,5.50
2017-12-16T15:55:39.920Z,5.60
2017-12-16T15:58:07.647Z,5.40
2017-12-16T16:00:35.586Z,5.50
2017-12-16T16:03:03.943Z,5.50
2017-12-16T16:05:31.585Z,5.50
2017-12-16T16:07:59.572Z,5.60
2017-12-16T16:10:27.398Z,5.50
2017-12-16T16:12:55.313Z,5.40
2017-12-16T16:15:23.151Z,5.40
2017-12-16T16:17:50.872Z,5.40
2017-12-16T16:20:19.827Z,5.30
2017-12-16T16:22:47.742Z,5.20
2017-12-16T16:25:15.407Z,5.30
2017-12-16T16:27:43.205Z,5.30
2017-12-16T16:30:10.848Z,5.30
2017-12-16T16:32:38.493Z,5.40
2017-12-16T16:35:06.053Z,5.30
2017-12-16T16:37:33.745Z,5.30
2017-12-16T16:40:01.406Z,5.30
2017-12-16T16:42:29.352Z,5.30
2017-12-16T16:44:57.048Z,5.10
2017-12-16T16:47:24.751Z,5.00
2017-12-16T16:49:53.308Z,4.80
2017-12-16T16:52:20.949Z,4.80
2017-12-16T16:54:49.613Z,4.90
2017-12-16T16:57:17.268Z,4.80
2017-12-16T16:59:44.864Z,4.80
2017-12-16T17:02:12.866Z,4.70
2017-12-16T17:04:40.605Z,4.70
2017-12-16T17:07:08.938Z,4.70
2017-12-16T17:09:36.535Z,4.80
2017-12-16T17:12:04.119Z,4.70
2017-12-16T17:14:31.735Z,4.50
2017-12-16T17:17:00.008Z,4.50
2017-12-16T17:19:27.587Z,4.40
2017-12-16T17:21:55.240Z,4.40
2017-12-16T17:24:22.829Z,4.30
2017-12-16T17:26:51.238Z,4.30
2017-12-16T17:29:19.813Z,4.30
2017-12-16T17:31:48.161Z,4.30
2017-12-16T17:34:15.771Z,4.30
2017-12-16T17:36:43.491Z,4.40
2017-12-16T17:39:11.173Z,4.30
2017-12-16T17:41:38.857Z,4.20
2017-12-16T17:44:06.472Z,4.30
2017-12-16T17:46:34.019Z,4.30
2017-12-16T17:49:01.684Z,4.40
2017-12-16T17:51:29.331Z,4.50
2017-12-16T17:53:56.998Z,4.50
2017-12-16T17:56:24.614Z,4.50
2017-12-16T17:58:53.042Z,4.60
2017-12-16T18:01:20.616Z,4.60
2017-12-16T18:03:48.240Z,4.60
2017-12-16T18:06:15.811Z,4.60
2017-12-16T18:08:43.457Z,4.60
2017-12-16T18:11:11.054Z,4.60
2017-12-16T18:13:38.671Z,4.60
2017-12-16T18:16:06.379Z,4.60
2017-12-16T18:18:34.067Z,4.60
2017-12-16T18:21:01.630Z,4.60
2017-12-16T18:23:29.279Z,4.60
2017-12-16T18:25:56.918Z,4.60
2017-12-16T18:28:24.451Z,4.60
2017-12-16T18:30:52.074Z,4.60
2017-12-16T18:33:19.644Z,4.60
2017-12-16T18:35:47.303Z,4.70
2017-12-16T18:38:19.955Z,4.80
2017-12-16T18:40:47.562Z,4.70
2017-12-16T18:43:15.235Z,4.70
2017-12-16T18:45:42.915Z,4.70
2017-12-16T18:48:10.476Z,4.80
2017-12-16T18:50:38.098Z,4.70
2017-12-16T18:53:06.590Z,4.60
2017-12-16T18:55:34.189Z,4.50
2017-12-16T18:58:01.885Z,4.50
2017-12-16T19:00:29.534Z,4.50
2017-12-16T19:02:57.175Z,4.60
2017-12-16T19:05:24.779Z,4.30
2017-12-16T19:07:52.394Z,4.40
2017-12-16T19:10:20.304Z,4.40
2017-12-16T19:12:47.886Z,4.40
2017-12-16T19:15:15.484Z,4.30
2017-12-16T19:17:43.078Z,4.30
2017-12-16T19:20:10.676Z,4.30
2017-12-16T19:22:39.046Z,4.40
2017-12-16T19:25:06.630Z,4.30
2017-12-16T19:27:35.265Z,4.30
2017-12-16T19:30:02.826Z,4.30
2017-12-16T19:32:30.488Z,4.40
2017-12-16T19:34:58.061Z,4.20
2017-12-16T19:37:27.492Z,4.20
2017-12-16T19:39:55.937Z,4.20
2017-12-16T19:42:23.537Z,4.20
2017-12-16T19:44:51.926Z,4.00
2017-12-16T19:47:19.585Z,4.00
2017-12-16T19:49:47.183Z,4.00
2017-12-16T19:52:14.850Z,4.00
2017-12-16T19:54:42.583Z,4.10
2017-12-16T19:57:10.225Z,4.20
2017-12-16T19:59:37.902Z,4.10
2017-12-16T20:02:05.461Z,4.10
2017-12-16T20:04:33.053Z,4.10
2017-12-16T20:07:00.721Z,4.10
2017-12-16T20:09:28.360Z,4.20
2017-12-16T20:11:56.043Z,4.10
2017-12-16T20:14:23.687Z,4.00
2017-12-16T20:16:51.265Z,4.00
2017-12-16T20:19:19.610Z,4.00
2017-12-16T20:21:48.099Z,3.90
2017-12-16T20:24:16.450Z,3.80
2017-12-16T20:26:44.842Z,3.70
2017-12-16T20:29:12.418Z,3.70
2017-12-16T20:31:40.112Z,3.70
2017-12-16T20:34:07.688Z,3.70
2017-12-16T20:36:35.238Z,3.70
2017-12-16T20:39:02.866Z,3.50
2017-12-16T20:41:30.446Z,3.50
2017-12-16T20:43:58.060Z,3.50
2017-12-16T20:46:25.669Z,3.40
2017-12-16T20:48:53.288Z,3.30
2017-12-16T20:51:20.884Z,3.30
2017-12-16T20:53:48.452Z,3.40
2017-12-16T20:56:16.038Z,3.30
2017-12-16T20:58:44.409Z,3.30
2017-12-16T21:01:12.766Z,3.30
2017-12-16T21:03:40.395Z,3.30
2017-12-16T21:06:07.955Z,3.30
2017-12-16T21:08:35.561Z,3.40
2017-12-16T21:11:03.138Z,3.30
2017-12-16T21:13:31.428Z,3.30
2017-12-16T21:15:59.846Z,3.30
2017-12-16T21:18:27.489Z,3.30
2017-12-16T21:20:55.036Z,3.40
2017-12-16T21:23:22.675Z,3.30
2017-12-16T21:25:51.036Z,3.30
2017-12-16T21:28:18.691Z,3.30
2017-12-16T21:30:46.262Z,3.30
2017-12-16T21:33:13.886Z,3.30
2017-12-16T21:35:42.261Z,3.40
2017-12-16T21:38:10.661Z,3.30
2017-12-16T21:40:38.265Z,3.30
2017-12-16T21:43:05.993Z,3.40
2017-12-16T21:45:33.582Z,3.30
2017-12-16T21:48:01.134Z,3.10
2017-12-16T21:50:28.709Z,3.10
2017-12-16T21:52:56.324Z,3.10
2017-12-16T21:55:24.001Z,3.10
2017-12-16T21:57:51.708Z,3.00
2017-12-16T22:00:19.342Z,3.10
2017-12-16T22:02:46.909Z,3.20
2017-12-16T22:05:14.546Z,3.10
2017-12-16T22:07:42.157Z,3.00
2017-12-16T22:10:09.745Z,3.10
2017-12-16T22:12:38.094Z,3.30
2017-12-16T22:15:06.517Z,3.30
2017-12-16T22:17:34.288Z,3.30
2017-12-16T22:20:01.873Z,3.40
2017-12-16T22:22:29.455Z,3.40
2017-12-16T22:24:57.799Z,3.50
2017-12-16T22:27:25.384Z,3.50
2017-12-16T22:29:53.731Z,3.40
2017-12-16T22:32:21.318Z,3.40
2017-12-16T22:34:49.678Z,3.50
2017-12-16T22:37:17.313Z,3.50
2017-12-16T22:39:45.485Z,3.50
2017-12-16T22:42:13.063Z,3.50
2017-12-16T22:44:40.653Z,3.60
2017-12-16T22:47:08.268Z,3.70
2017-12-16T22:49:36.754Z,3.60
2017-12-16T22:52:04.390Z,3.60
2017-12-16T22:54:31.956Z,3.60
2017-12-16T22:56:59.823Z,3.60
2017-12-16T22:59:28.088Z,3.70
2017-12-16T23:01:55.690Z,3.70
2017-12-16T23:04:23.356Z,3.60
2017-12-16T23:06:51.002Z,3.60
2017-12-16T23:09:18.650Z,3.40
2017-12-16T23:11:46.264Z,3.40
2017-12-16T23:14:13.840Z,3.30
2017-12-16T23:16:41.465Z,3.30
2017-12-16T23:19:09.038Z,3.30
2017-12-16T23:21:36.631Z,3.20
2017-12-16T23:24:04.254Z,3.20
2017-12-16T23:26:31.871Z,3.20
2017-12-16T23:28:59.478Z,3.30
2017-12-16T23:31:27.016Z,3.40
2017-12-16T23:33:54.625Z,3.50
2017-12-16T23:36:22.220Z,3.40
2017-12-16T23:38:51.029Z,3.30
2017-12-16T23:41:18.638Z,3.30
2017-12-16T23:43:46.310Z,3.50
2017-12-16T23:46:13.898Z,3.40
2017-12-16T23:48:41.555Z,3.60
2017-12-16T23:51:09.979Z,3.60
2017-12-16T23:53:37.614Z,3.70
2017-12-16T23:56:05.195Z,3.60
2017-12-16T23:58:32.861Z,3.60
